createdAt,value
2019-05-10T00:01:41.017Z,8.04
2019-05-10T00:04:30.974Z,7.99
2019-05-10T00:07:21.018Z,7.92
2019-05-10T00:09:52.794Z,7.92
2019-05-10T00:12:56.623Z,7.87
2019-05-10T00:15:31.302Z,7.82
2019-05-10T00:18:04.028Z,7.82
2019-05-10T00:20:36.915Z,7.84
2019-05-10T00:23:09.625Z,7.77
2019-05-10T00:25:42.307Z,7.90
2019-05-10T00:28:15.325Z,7.85
2019-05-10T00:30:48.142Z,7.85
2019-05-10T00:33:20.758Z,7.77
2019-05-10T00:35:53.381Z,7.69
2019-05-10T00:38:26.126Z,7.65
2019-05-10T00:41:01.774Z,7.70
2019-05-10T00:43:34.407Z,7.63
2019-05-10T00:46:07.100Z,7.56
2019-05-10T00:48:39.765Z,7.53
2019-05-10T00:51:12.583Z,7.47
2019-05-10T00:53:45.370Z,7.54
2019-05-10T00:56:18.069Z,7.44
2019-05-10T00:58:50.762Z,7.44
2019-05-10T01:01:23.419Z,7.43
2019-05-10T01:03:56.071Z,7.48
2019-05-10T01:06:28.808Z,7.47
2019-05-10T01:09:01.505Z,7.45
2019-05-10T01:11:34.320Z,7.47
2019-05-10T01:14:07.254Z,7.43
2019-05-10T01:16:40.202Z,7.38
2019-05-10T01:19:12.952Z,7.41
2019-05-10T01:21:45.627Z,7.39
2019-05-10T01:24:18.275Z,7.34
2019-05-10T01:26:51.028Z,7.36
2019-05-10T01:29:23.652Z,7.27
2019-05-10T01:31:56.618Z,7.24
2019-05-10T01:34:29.225Z,7.28
2019-05-10T01:37:02.021Z,7.29
2019-05-10T01:39:34.293Z,7.34
2019-05-10T01:42:06.925Z,7.29
2019-05-10T01:44:39.579Z,7.27
2019-05-10T01:47:12.211Z,7.28
2019-05-10T01:49:44.886Z,7.26
2019-05-10T01:52:17.558Z,7.26
2019-05-10T01:54:50.161Z,7.30
2019-05-10T01:57:24.288Z,7.28
2019-05-10T01:59:56.921Z,7.27
2019-05-10T02:02:29.547Z,7.30
2019-05-10T02:05:02.274Z,7.28
2019-05-10T02:07:35.008Z,7.31
2019-05-10T02:10:08.562Z,7.28
2019-05-10T02:12:41.241Z,7.24
2019-05-10T02:15:14.171Z,7.24
2019-05-10T02:17:46.761Z,7.23
2019-05-10T02:20:19.508Z,7.27
2019-05-10T02:22:52.106Z,7.26
2019-05-10T02:25:24.698Z,7.28
2019-05-10T02:27:57.446Z,7.21
2019-05-10T02:30:30.097Z,7.19
2019-05-10T02:33:02.781Z,7.21
2019-05-10T02:35:35.553Z,7.20
2019-05-10T02:38:07.510Z,7.17
2019-05-10T02:40:40.241Z,7.23
2019-05-10T02:43:13.092Z,7.24
2019-05-10T02:45:45.809Z,7.21
2019-05-10T02:48:18.605Z,7.20
2019-05-10T02:50:51.220Z,7.20
2019-05-10T02:53:24.086Z,7.27
2019-05-10T02:55:57.540Z,7.31
2019-05-10T02:58:30.364Z,7.26
2019-05-10T03:01:05.898Z,7.23
2019-05-10T03:03:40.763Z,7.23
2019-05-10T03:06:18.337Z,7.26
2019-05-10T03:08:56.331Z,7.26
2019-05-10T03:11:31.402Z,7.30
2019-05-10T03:14:09.937Z,7.28
2019-05-10T03:16:45.702Z,7.30
2019-05-10T03:19:20.925Z,7.31
2019-05-10T03:22:07.233Z,7.30
2019-05-10T03:24:39.901Z,7.29
2019-05-10T03:27:12.541Z,7.29
2019-05-10T03:29:45.282Z,7.28
2019-05-10T03:32:18.163Z,7.30
2019-05-10T03:34:50.848Z,7.30
2019-05-10T03:37:23.516Z,7.32
2019-05-10T03:39:56.330Z,7.30
2019-05-10T03:42:29.220Z,7.32
2019-05-10T03:45:01.979Z,7.33
2019-05-10T03:47:34.625Z,7.31
2019-05-10T03:50:08.482Z,7.24
2019-05-10T03:52:41.287Z,7.26
2019-05-10T03:55:14.076Z,7.27
2019-05-10T03:57:46.707Z,7.20
2019-05-10T04:00:19.868Z,7.19
2019-05-10T04:02:52.508Z,7.14
2019-05-10T04:05:25.242Z,7.16
2019-05-10T04:07:57.871Z,7.08
2019-05-10T04:10:30.689Z,7.06
2019-05-10T04:13:03.390Z,7.08
2019-05-10T04:15:36.103Z,7.08
2019-05-10T04:18:08.823Z,7.03
2019-05-10T04:20:41.564Z,7.02
2019-05-10T04:23:14.217Z,7.08
2019-05-10T04:25:46.889Z,7.09
2019-05-10T04:28:19.584Z,7.10
2019-05-10T04:30:52.237Z,7.11
2019-05-10T04:33:24.982Z,7.15
2019-05-10T04:35:57.702Z,7.18
2019-05-10T04:38:30.341Z,7.18
2019-05-10T04:41:03.151Z,7.18
2019-05-10T04:43:35.049Z,7.17
2019-05-10T04:46:07.857Z,7.21
2019-05-10T04:48:40.453Z,7.21
2019-05-10T04:51:13.159Z,7.21
2019-05-10T04:53:45.834Z,7.26
2019-05-10T04:56:18.553Z,7.30
2019-05-10T04:58:51.175Z,7.36
2019-05-10T05:01:23.937Z,7.45
2019-05-10T05:03:56.532Z,7.51
2019-05-10T05:06:29.230Z,7.50
2019-05-10T05:09:01.918Z,7.52
2019-05-10T05:11:34.595Z,7.60
2019-05-10T05:14:09.469Z,7.67
2019-05-10T05:16:41.698Z,7.69
2019-05-10T05:19:14.315Z,7.83
2019-05-10T05:21:46.923Z,7.90
2019-05-10T05:24:22.918Z,8.03
2019-05-10T05:26:54.165Z,8.12
2019-05-10T05:29:26.926Z,8.21
2019-05-10T05:32:01.037Z,8.31
2019-05-10T05:34:34.100Z,8.35
2019-05-10T05:37:06.848Z,8.54
2019-05-10T05:39:39.483Z,8.72
2019-05-10T05:42:12.239Z,8.80
2019-05-10T05:44:45.355Z,9.10
2019-05-10T05:47:18.095Z,9.11
2019-05-10T05:49:50.945Z,9.49
2019-05-10T05:52:23.718Z,9.55
2019-05-10T05:54:57.601Z,9.60
2019-05-10T05:57:31.000Z,9.81
2019-05-10T06:00:06.418Z,9.78
2019-05-10T06:02:44.224Z,9.94
2019-05-10T06:05:12.942Z,10.01
2019-05-10T06:07:45.624Z,10.07
2019-05-10T06:10:19.831Z,10.05
2019-05-10T06:12:53.019Z,10.41
2019-05-10T06:15:29.079Z,10.66
2019-05-10T06:18:03.483Z,10.52
2019-05-10T06:20:38.281Z,10.67
2019-05-10T06:23:09.378Z,10.92
2019-05-10T06:25:43.536Z,11.35
2019-05-10T06:28:28.655Z,11.32
2019-05-10T06:30:52.642Z,11.57
2019-05-10T06:33:25.437Z,11.95
2019-05-10T06:35:58.133Z,12.43
2019-05-10T06:38:31.961Z,12.31
2019-05-10T06:41:10.270Z,12.28
2019-05-10T06:43:39.254Z,12.67
2019-05-10T06:46:12.127Z,12.96
2019-05-10T06:48:44.916Z,12.92
2019-05-10T06:51:17.770Z,12.85
2019-05-10T06:53:53.593Z,12.77
2019-05-10T06:56:25.185Z,12.55
2019-05-10T06:59:12.334Z,12.35
2019-05-10T07:01:38.476Z,12.49
2019-05-10T07:04:07.238Z,12.34
2019-05-10T07:06:39.939Z,11.96
2019-05-10T07:09:13.193Z,12.09
2019-05-10T07:11:45.874Z,12.13
2019-05-10T07:14:25.385Z,12.04
2019-05-10T07:16:56.481Z,12.23
2019-05-10T07:19:28.851Z,12.52
2019-05-10T07:22:01.846Z,12.68
2019-05-10T07:24:34.575Z,12.90
2019-05-10T07:27:07.339Z,12.72
2019-05-10T07:29:43.269Z,13.01
2019-05-10T07:32:16.398Z,13.28
2019-05-10T07:34:58.357Z,13.09
2019-05-10T07:37:23.852Z,12.99
2019-05-10T07:39:56.652Z,13.26
2019-05-10T07:42:29.334Z,13.31
2019-05-10T07:45:02.527Z,13.33
2019-05-10T07:47:35.286Z,13.17
2019-05-10T07:50:10.126Z,13.74
2019-05-10T07:52:44.103Z,13.48
2019-05-10T07:55:27.834Z,13.12
2019-05-10T07:57:51.926Z,13.21
2019-05-10T08:00:25.581Z,13.24
2019-05-10T08:03:12.402Z,13.29
2019-05-10T08:05:32.825Z,13.24
2019-05-10T08:08:05.704Z,13.78
2019-05-10T08:10:39.373Z,14.17
2019-05-10T08:13:15.307Z,13.97
2019-05-10T08:15:48.939Z,14.18
2019-05-10T08:18:25.265Z,14.54
2019-05-10T08:21:01.986Z,14.64
2019-05-10T08:23:30.291Z,13.79
2019-05-10T08:26:04.518Z,14.08
2019-05-10T08:28:41.333Z,13.93
2019-05-10T08:31:12.466Z,13.98
2019-05-10T08:33:57.168Z,13.96
2019-05-10T08:36:21.789Z,13.48
2019-05-10T08:39:05.081Z,13.73
2019-05-10T08:41:28.487Z,13.53
2019-05-10T08:44:04.648Z,13.32
2019-05-10T08:46:41.194Z,13.27
2019-05-10T08:49:10.252Z,13.57
2019-05-10T08:51:47.738Z,13.65
2019-05-10T08:54:17.459Z,13.61
2019-05-10T08:56:54.929Z,13.18
2019-05-10T08:59:26.809Z,13.30
2019-05-10T09:01:59.339Z,13.35
2019-05-10T09:04:42.261Z,13.40
2019-05-10T09:07:07.011Z,13.58
2019-05-10T09:09:45.706Z,13.65
2019-05-10T09:12:14.109Z,13.55
2019-05-10T09:14:48.707Z,13.60
2019-05-10T09:17:23.580Z,13.67
2019-05-10T09:19:55.710Z,13.39
2019-05-10T09:22:34.103Z,12.87
2019-05-10T09:25:02.979Z,12.54
2019-05-10T09:27:35.728Z,12.20
2019-05-10T09:30:16.166Z,12.08
2019-05-10T09:32:44.478Z,12.14
2019-05-10T09:35:17.211Z,12.27
2019-05-10T09:37:54.109Z,12.23
2019-05-10T09:40:26.035Z,12.41
2019-05-10T09:42:59.400Z,12.92
2019-05-10T09:45:33.447Z,13.40
2019-05-10T09:48:06.186Z,13.64
2019-05-10T09:50:44.853Z,13.96
2019-05-10T09:53:21.700Z,14.13
2019-05-10T09:55:55.260Z,15.40
2019-05-10T09:58:22.638Z,15.98
2019-05-10T10:01:12.753Z,17.56
2019-05-10T10:03:30.330Z,17.97
2019-05-10T10:06:07.628Z,18.46
2019-05-10T10:08:43.401Z,19.39
2019-05-10T10:11:18.083Z,20.79
2019-05-10T10:13:58.596Z,21.34
2019-05-10T10:16:24.056Z,19.75
2019-05-10T10:18:56.747Z,18.53
2019-05-10T10:21:34.893Z,18.02
2019-05-10T10:24:13.769Z,17.19
2019-05-10T10:26:38.403Z,16.59
2019-05-10T10:29:11.083Z,15.51
2019-05-10T10:31:51.470Z,14.81
2019-05-10T10:34:18.250Z,14.52
2019-05-10T10:36:51.114Z,14.04
2019-05-10T10:39:24.443Z,13.37
2019-05-10T10:41:57.295Z,13.76
2019-05-10T10:44:30.017Z,14.10
2019-05-10T10:47:02.800Z,14.31
2019-05-10T10:49:37.650Z,14.76
2019-05-10T10:52:11.369Z,15.22
2019-05-10T10:54:44.560Z,16.04
2019-05-10T10:57:18.022Z,17.00
2019-05-10T10:59:50.860Z,17.12
2019-05-10T11:02:32.705Z,16.57
2019-05-10T11:04:58.253Z,16.65
2019-05-10T11:07:35.293Z,15.95
2019-05-10T11:10:15.437Z,16.39
2019-05-10T11:12:41.378Z,17.41
2019-05-10T11:15:16.396Z,18.45
2019-05-10T11:17:50.580Z,19.46
2019-05-10T11:20:23.149Z,18.88
2019-05-10T11:22:55.894Z,18.40
2019-05-10T11:25:30.718Z,19.15
2019-05-10T11:28:03.524Z,18.51
2019-05-10T11:30:36.395Z,18.38
2019-05-10T11:33:23.822Z,19.80
2019-05-10T11:35:44.536Z,20.26
2019-05-10T11:38:17.269Z,21.13
2019-05-10T11:40:50.019Z,21.11
2019-05-10T11:43:26.937Z,19.49
2019-05-10T11:45:57.338Z,19.28
2019-05-10T11:48:36.836Z,18.47
2019-05-10T11:51:05.858Z,17.78
2019-05-10T11:53:41.461Z,17.86
2019-05-10T11:58:55.049Z,17.02
2019-05-10T12:01:22.596Z,16.01
2019-05-10T12:03:55.361Z,15.00
2019-05-10T12:06:28.340Z,14.54
2019-05-10T12:09:04.590Z,14.63
2019-05-10T12:11:43.064Z,14.35
2019-05-10T12:14:13.859Z,13.91
2019-05-10T12:16:44.864Z,13.58
2019-05-10T12:19:21.129Z,13.58
2019-05-10T12:24:46.284Z,12.80
2019-05-10T12:26:04.743Z,17.67
2019-05-10T12:26:20.604Z,13.43
2019-05-10T12:27:18.460Z,12.41
2019-05-10T12:29:35.700Z,12.18
2019-05-10T12:32:10.380Z,12.10
2019-05-10T12:34:45.950Z,12.37
2019-05-10T12:37:17.454Z,13.28
2019-05-10T12:39:52.869Z,14.19
2019-05-10T12:42:24.724Z,15.08
2019-05-10T12:44:57.415Z,15.82
2019-05-10T12:47:30.603Z,15.79
2019-05-10T12:50:04.767Z,14.96
2019-05-10T12:52:37.721Z,14.51
2019-05-10T12:55:11.210Z,14.52
2019-05-10T12:57:43.933Z,14.86
2019-05-10T13:00:17.649Z,15.41
2019-05-10T13:02:51.919Z,15.26
2019-05-10T13:05:31.730Z,16.14
2019-05-10T13:07:59.694Z,17.54
2019-05-10T13:10:37.215Z,18.84
2019-05-10T13:13:06.842Z,19.04
2019-05-10T13:15:40.107Z,18.29
2019-05-10T13:18:13.131Z,17.54
2019-05-10T13:20:45.923Z,17.53
2019-05-10T13:23:18.781Z,17.52
2019-05-10T13:25:51.624Z,17.57
2019-05-10T13:28:24.407Z,17.78
2019-05-10T13:30:59.894Z,17.63
2019-05-10T13:33:40.676Z,18.05
2019-05-10T13:36:06.290Z,17.48
2019-05-10T13:38:43.940Z,16.74
2019-05-10T13:41:17.745Z,17.31
2019-05-10T13:43:48.149Z,18.97
2019-05-10T13:46:20.942Z,18.45
2019-05-10T13:48:53.643Z,18.30
2019-05-10T13:51:26.438Z,17.59
2019-05-10T13:54:00.857Z,17.73
2019-05-10T13:56:33.869Z,18.08
2019-05-10T13:59:15.339Z,17.46
2019-05-10T14:01:44.233Z,18.06
2019-05-10T14:04:15.629Z,17.80
2019-05-10T14:06:48.362Z,17.08
2019-05-10T14:09:21.270Z,17.44
2019-05-10T14:11:54.247Z,18.01
2019-05-10T14:14:27.028Z,19.54
2019-05-10T14:16:59.917Z,21.16
2019-05-10T14:19:35.842Z,21.37
2019-05-10T14:22:06.691Z,19.90
2019-05-10T14:24:39.417Z,20.34
2019-05-10T14:27:12.228Z,20.28
2019-05-10T14:29:44.973Z,20.78
2019-05-10T14:32:17.728Z,21.62
2019-05-10T14:34:50.580Z,20.72
2019-05-10T14:37:23.494Z,19.50
2019-05-10T14:39:56.326Z,18.97
2019-05-10T14:42:31.784Z,19.14
2019-05-10T14:45:03.863Z,19.04
2019-05-10T14:47:46.962Z,19.83
2019-05-10T14:50:12.246Z,20.18
2019-05-10T14:52:44.981Z,19.43
2019-05-10T14:55:17.703Z,18.05
2019-05-10T14:57:50.567Z,18.50
2019-05-10T15:00:23.633Z,18.40
2019-05-10T15:03:01.540Z,17.69
2019-05-10T15:05:30.842Z,17.67
2019-05-10T15:08:06.513Z,17.29
2019-05-10T15:10:41.810Z,17.29
2019-05-10T15:13:19.503Z,17.30
2019-05-10T15:15:49.219Z,16.94
2019-05-10T15:18:21.894Z,17.48
2019-05-10T15:20:54.698Z,17.86
2019-05-10T15:23:27.610Z,17.96
2019-05-10T15:26:10.487Z,17.85
2019-05-10T15:28:40.669Z,16.99
2019-05-10T15:31:09.276Z,16.69
2019-05-10T15:33:42.145Z,16.49
2019-05-10T15:36:14.810Z,16.44
2019-05-10T15:38:51.678Z,16.37
2019-05-10T15:41:22.404Z,15.97
2019-05-10T15:43:56.398Z,15.90
2019-05-10T15:46:39.365Z,15.59
2019-05-10T15:49:03.581Z,15.38
2019-05-10T15:51:36.863Z,15.53
2019-05-10T15:54:09.678Z,15.73
2019-05-10T15:56:44.206Z,16.24
2019-05-10T15:59:23.779Z,16.20
2019-05-10T16:01:51.780Z,16.52
2019-05-10T16:04:24.717Z,17.31
2019-05-10T16:07:09.322Z,18.60
2019-05-10T16:09:42.827Z,18.99
2019-05-10T16:12:16.493Z,19.48
2019-05-10T16:14:49.240Z,18.64
2019-05-10T16:17:23.977Z,18.08
2019-05-10T16:19:59.692Z,18.18
2019-05-10T16:22:32.066Z,18.38
2019-05-10T16:25:04.997Z,18.03
2019-05-10T16:27:41.721Z,17.83
2019-05-10T16:30:17.703Z,17.91
2019-05-10T16:32:48.221Z,18.48
2019-05-10T16:35:22.217Z,18.31
2019-05-10T16:37:54.955Z,18.18
2019-05-10T16:40:27.684Z,18.00
2019-05-10T16:43:01.090Z,17.27
2019-05-10T16:45:33.839Z,17.45
2019-05-10T16:48:09.981Z,17.67
2019-05-10T16:50:42.702Z,17.73
2019-05-10T16:53:15.492Z,17.55
2019-05-10T16:55:50.163Z,17.41
2019-05-10T16:58:23.277Z,17.23
2019-05-10T17:00:56.047Z,17.12
2019-05-10T17:03:28.850Z,17.42
2019-05-10T17:06:04.072Z,17.34
2019-05-10T17:08:38.657Z,17.44
2019-05-10T17:11:11.947Z,17.21
2019-05-10T17:14:01.381Z,17.18
2019-05-10T17:16:34.208Z,16.87
2019-05-10T17:19:07.050Z,16.93
2019-05-10T17:21:40.282Z,16.56
2019-05-10T17:24:13.815Z,16.43
2019-05-10T17:26:46.648Z,16.26
2019-05-10T17:29:19.380Z,16.06
2019-05-10T17:31:52.089Z,16.18
2019-05-10T17:34:29.519Z,15.87
2019-05-10T17:36:59.843Z,15.70
2019-05-10T17:39:34.230Z,15.50
2019-05-10T17:42:07.152Z,15.39
2019-05-10T17:44:43.586Z,15.21
2019-05-10T17:47:14.968Z,14.85
2019-05-10T17:49:47.707Z,14.87
2019-05-10T17:52:20.442Z,14.71
2019-05-10T17:54:53.501Z,14.56
2019-05-10T17:57:26.216Z,14.45
2019-05-10T17:59:59.056Z,14.41
2019-05-10T18:02:31.881Z,14.33
2019-05-10T18:05:07.993Z,14.14
2019-05-10T18:07:39.386Z,13.98
2019-05-10T18:10:12.782Z,13.74
2019-05-10T18:12:45.485Z,13.61
2019-05-10T18:15:18.276Z,13.41
2019-05-10T18:17:51.106Z,13.28
2019-05-10T18:20:23.964Z,13.18
2019-05-10T18:22:56.663Z,13.07
2019-05-10T18:25:29.372Z,13.00
2019-05-10T18:28:02.157Z,12.83
2019-05-10T18:30:34.890Z,12.70
2019-05-10T18:33:12.488Z,12.62
2019-05-10T18:35:42.177Z,12.50
2019-05-10T18:38:15.026Z,12.41
2019-05-10T18:40:47.769Z,12.30
2019-05-10T18:43:20.569Z,12.24
2019-05-10T18:45:53.343Z,12.08
2019-05-10T18:48:26.126Z,12.04
2019-05-10T18:50:58.838Z,11.95
2019-05-10T18:53:31.616Z,11.86
2019-05-10T18:56:04.484Z,11.79
2019-05-10T18:58:36.759Z,11.76
2019-05-10T19:01:09.521Z,11.71
2019-05-10T19:03:42.387Z,11.64
2019-05-10T19:06:15.132Z,11.62
2019-05-10T19:08:47.845Z,11.60
2019-05-10T19:11:20.648Z,11.54
2019-05-10T19:13:54.173Z,11.49
2019-05-10T19:16:32.194Z,11.43
2019-05-10T19:19:03.643Z,11.38
2019-05-10T19:21:37.885Z,11.36
2019-05-10T19:24:11.059Z,11.32
2019-05-10T19:26:43.827Z,11.34
2019-05-10T19:29:16.626Z,11.27
2019-05-10T19:31:51.513Z,11.16
2019-05-10T19:34:24.308Z,11.14
2019-05-10T19:36:57.102Z,11.13
2019-05-10T19:39:29.896Z,11.07
2019-05-10T19:42:04.005Z,11.11
2019-05-10T19:44:40.564Z,11.09
2019-05-10T19:47:17.690Z,11.09
2019-05-10T19:49:51.878Z,11.12
2019-05-10T19:52:26.095Z,11.10
2019-05-10T19:54:54.948Z,11.09
2019-05-10T19:57:27.790Z,11.10
2019-05-10T20:00:00.521Z,11.05
2019-05-10T20:02:33.278Z,11.07
2019-05-10T20:05:06.284Z,11.12
2019-05-10T20:07:46.056Z,11.33
2019-05-10T20:10:14.161Z,11.27
2019-05-10T20:12:46.905Z,11.24
2019-05-10T20:15:19.892Z,11.09
2019-05-10T20:17:52.761Z,11.06
2019-05-10T20:20:25.503Z,11.07
2019-05-10T20:22:58.257Z,11.26
2019-05-10T20:25:31.003Z,11.89
2019-05-10T20:28:06.424Z,11.76
2019-05-10T20:30:38.400Z,11.64
2019-05-10T20:33:11.314Z,11.82
2019-05-10T20:35:44.441Z,11.66
2019-05-10T20:38:17.297Z,11.77
2019-05-10T20:40:50.049Z,11.63
2019-05-10T20:43:22.935Z,11.43
2019-05-10T20:45:55.649Z,11.52
2019-05-10T20:48:29.276Z,11.45
2019-05-10T20:51:02.065Z,11.36
2019-05-10T20:53:34.770Z,11.32
2019-05-10T20:56:07.655Z,11.40
2019-05-10T20:58:40.765Z,11.62
2019-05-10T21:01:14.027Z,11.37
2019-05-10T21:03:46.834Z,11.22
2019-05-10T21:06:19.543Z,11.05
2019-05-10T21:08:52.337Z,11.00
2019-05-10T21:11:25.058Z,10.89
2019-05-10T21:13:58.098Z,10.76
2019-05-10T21:16:31.022Z,10.70
2019-05-10T21:19:05.173Z,10.64
2019-05-10T21:21:37.901Z,10.49
2019-05-10T21:24:10.859Z,10.56
2019-05-10T21:26:43.547Z,10.59
2019-05-10T21:29:17.349Z,10.55
2019-05-10T21:31:50.082Z,10.44
2019-05-10T21:34:22.854Z,10.39
2019-05-10T21:36:55.548Z,10.47
2019-05-10T21:39:28.373Z,10.56
2019-05-10T21:42:01.313Z,10.46
2019-05-10T21:44:34.121Z,10.43
2019-05-10T21:47:06.804Z,10.45
2019-05-10T21:49:39.607Z,10.47
2019-05-10T21:52:12.424Z,10.49
2019-05-10T21:54:45.215Z,10.44
2019-05-10T21:57:17.971Z,10.37
2019-05-10T21:59:51.599Z,10.40
2019-05-10T22:02:24.312Z,10.45
2019-05-10T22:04:57.153Z,10.53
2019-05-10T22:07:29.997Z,10.53
2019-05-10T22:10:02.718Z,10.71
2019-05-10T22:12:35.525Z,10.80
2019-05-10T22:15:10.447Z,10.78
2019-05-10T22:17:43.236Z,10.86
2019-05-10T22:20:16.345Z,10.78
2019-05-10T22:22:49.005Z,10.70
2019-05-10T22:25:21.832Z,10.61
2019-05-10T22:27:57.526Z,10.53
2019-05-10T22:30:30.316Z,10.53
2019-05-10T22:33:03.038Z,10.71
2019-05-10T22:35:35.761Z,10.61
2019-05-10T22:38:08.710Z,10.54
2019-05-10T22:40:41.481Z,10.49
2019-05-10T22:43:14.242Z,10.38
2019-05-10T22:45:47.149Z,10.35
2019-05-10T22:48:19.896Z,10.42
2019-05-10T22:50:52.649Z,10.46
2019-05-10T22:53:25.419Z,10.44
2019-05-10T22:55:58.229Z,10.27
2019-05-10T22:58:31.156Z,10.33
2019-05-10T23:01:03.157Z,10.31
2019-05-10T23:03:35.939Z,10.31
2019-05-10T23:06:08.941Z,10.34
2019-05-10T23:08:41.792Z,10.58
2019-05-10T23:11:14.622Z,10.66
2019-05-10T23:13:47.323Z,10.45
2019-05-10T23:16:20.119Z,10.33
2019-05-10T23:18:52.932Z,10.33
2019-05-10T23:21:28.444Z,10.29
2019-05-10T23:24:06.837Z,10.36
2019-05-10T23:26:39.614Z,10.42
2019-05-10T23:29:12.356Z,10.22
2019-05-10T23:31:45.018Z,10.26
2019-05-10T23:34:17.794Z,10.13
2019-05-10T23:36:50.581Z,10.04
2019-05-10T23:39:38.399Z,10.30
2019-05-10T23:41:57.896Z,10.33
2019-05-10T23:44:30.792Z,10.41
2019-05-10T23:47:03.466Z,10.61
2019-05-10T23:49:36.229Z,10.63
2019-05-10T23:52:09.095Z,10.58
2019-05-10T23:54:41.847Z,10.55
2019-05-10T23:57:14.676Z,10.72
2019-05-10T23:59:47.457Z,10.82
